sensor_id;sensor_type;location;lat;lon;timestamp;P1;durP1;ratioP1;P2;durP2;ratioP2
10987;SDS011;5547;42.672;23.230;2022-08-19T00:00:05;6.10;;;5.60;;
10987;SDS011;5547;42.672;23.230;2022-08-19T00:02:33;6.10;;;5.50;;
10987;SDS011;5547;42.672;23.230;2022-08-19T00:04:59;5.87;;;5.47;;
10987;SDS011;5547;42.672;23.230;2022-08-19T00:07:24;6.00;;;5.50;;
10987;SDS011;5547;42.672;23.230;2022-08-19T00:09:50;6.33;;;5.87;;
10987;SDS011;5547;42.672;23.230;2022-08-19T00:12:15;6.30;;;5.80;;
10987;SDS011;5547;42.672;23.230;2022-08-19T00:14:41;6.40;;;5.97;;
10987;SDS011;5547;42.672;23.230;2022-08-19T00:17:07;6.40;;;5.93;;
10987;SDS011;5547;42.672;23.230;2022-08-19T00:19:33;6.03;;;5.60;;
10987;SDS011;5547;42.672;23.230;2022-08-19T00:21:59;6.27;;;5.77;;
10987;SDS011;5547;42.672;23.230;2022-08-19T00:24:27;6.13;;;5.67;;
10987;SDS011;5547;42.672;23.230;2022-08-19T00:26:53;5.80;;;5.33;;
10987;SDS011;5547;42.672;23.230;2022-08-19T00:29:21;6.30;;;5.70;;
10987;SDS011;5547;42.672;23.230;2022-08-19T00:31:49;5.80;;;5.40;;
10987;SDS011;5547;42.672;23.230;2022-08-19T00:34:18;6.33;;;5.83;;
10987;SDS011;5547;42.672;23.230;2022-08-19T00:36:44;6.60;;;6.00;;
10987;SDS011;5547;42.672;23.230;2022-08-19T00:39:10;6.70;;;6.20;;
10987;SDS011;5547;42.672;23.230;2022-08-19T00:41:37;6.17;;;5.67;;
10987;SDS011;5547;42.672;23.230;2022-08-19T00:46:29;5.87;;;5.47;;
10987;SDS011;5547;42.672;23.230;2022-08-19T00:48:56;5.97;;;5.57;;
10987;SDS011;5547;42.672;23.230;2022-08-19T00:51:23;5.50;;;5.10;;
10987;SDS011;5547;42.672;23.230;2022-08-19T00:53:51;5.67;;;5.27;;
10987;SDS011;5547;42.672;23.230;2022-08-19T00:56:19;5.43;;;5.03;;
10987;SDS011;5547;42.672;23.230;2022-08-19T00:58:44;5.50;;;5.10;;
10987;SDS011;5547;42.672;23.230;2022-08-19T01:01:10;6.13;;;5.60;;
10987;SDS011;5547;42.672;23.230;2022-08-19T01:03:35;5.83;;;5.37;;
10987;SDS011;5547;42.672;23.230;2022-08-19T01:06:01;6.33;;;5.83;;
10987;SDS011;5547;42.672;23.230;2022-08-19T01:08:27;6.60;;;5.83;;
10987;SDS011;5547;42.672;23.230;2022-08-19T01:10:54;6.37;;;5.87;;
10987;SDS011;5547;42.672;23.230;2022-08-19T01:13:23;6.07;;;5.67;;
10987;SDS011;5547;42.672;23.230;2022-08-19T01:15:59;6.40;;;5.77;;
10987;SDS011;5547;42.672;23.230;2022-08-19T01:18:28;5.63;;;5.23;;
10987;SDS011;5547;42.672;23.230;2022-08-19T01:20:56;5.83;;;5.43;;
10987;SDS011;5547;42.672;23.230;2022-08-19T01:23:25;6.20;;;5.70;;
10987;SDS011;5547;42.672;23.230;2022-08-19T01:26:07;6.33;;;5.73;;
10987;SDS011;5547;42.672;23.230;2022-08-19T01:28:35;6.23;;;5.73;;
10987;SDS011;5547;42.672;23.230;2022-08-19T01:31:01;6.47;;;6.00;;
10987;SDS011;5547;42.672;23.230;2022-08-19T01:33:27;6.40;;;5.90;;
10987;SDS011;5547;42.672;23.230;2022-08-19T01:35:52;5.87;;;5.47;;
10987;SDS011;5547;42.672;23.230;2022-08-19T01:38:24;5.67;;;5.27;;
10987;SDS011;5547;42.672;23.230;2022-08-19T01:40:52;5.93;;;5.43;;
10987;SDS011;5547;42.672;23.230;2022-08-19T01:43:18;6.00;;;5.60;;
10987;SDS011;5547;42.672;23.230;2022-08-19T01:45:44;5.93;;;5.40;;
10987;SDS011;5547;42.672;23.230;2022-08-19T01:48:11;6.10;;;5.60;;
10987;SDS011;5547;42.672;23.230;2022-08-19T01:50:37;6.13;;;5.63;;
10987;SDS011;5547;42.672;23.230;2022-08-19T01:53:04;6.17;;;5.70;;
10987;SDS011;5547;42.672;23.230;2022-08-19T01:55:32;5.60;;;5.20;;
10987;SDS011;5547;42.672;23.230;2022-08-19T01:57:59;6.67;;;6.07;;
10987;SDS011;5547;42.672;23.230;2022-08-19T02:00:28;6.27;;;5.87;;
10987;SDS011;5547;42.672;23.230;2022-08-19T02:02:56;6.80;;;6.30;;
10987;SDS011;5547;42.672;23.230;2022-08-19T02:05:22;8.30;;;6.73;;
10987;SDS011;5547;42.672;23.230;2022-08-19T02:07:48;6.50;;;6.00;;
10987;SDS011;5547;42.672;23.230;2022-08-19T02:10:15;6.87;;;6.27;;
10987;SDS011;5547;42.672;23.230;2022-08-19T02:12:44;7.80;;;7.20;;
10987;SDS011;5547;42.672;23.230;2022-08-19T02:15:09;8.17;;;7.37;;
10987;SDS011;5547;42.672;23.230;2022-08-19T02:17:36;7.37;;;6.77;;
10987;SDS011;5547;42.672;23.230;2022-08-19T02:20:02;7.10;;;6.50;;
10987;SDS011;5547;42.672;23.230;2022-08-19T02:22:28;7.20;;;6.70;;
10987;SDS011;5547;42.672;23.230;2022-08-19T02:24:54;7.00;;;6.50;;
10987;SDS011;5547;42.672;23.230;2022-08-19T02:27:21;6.87;;;6.30;;
10987;SDS011;5547;42.672;23.230;2022-08-19T02:29:48;6.97;;;6.37;;
10987;SDS011;5547;42.672;23.230;2022-08-19T02:32:14;7.20;;;6.50;;
10987;SDS011;5547;42.672;23.230;2022-08-19T02:34:40;6.97;;;6.30;;
10987;SDS011;5547;42.672;23.230;2022-08-19T02:37:07;6.60;;;6.10;;
10987;SDS011;5547;42.672;23.230;2022-08-19T02:39:55;6.47;;;5.90;;
10987;SDS011;5547;42.672;23.230;2022-08-19T02:42:21;6.23;;;5.73;;
10987;SDS011;5547;42.672;23.230;2022-08-19T02:44:46;6.00;;;5.60;;
10987;SDS011;5547;42.672;23.230;2022-08-19T02:47:11;6.20;;;5.70;;
10987;SDS011;5547;42.672;23.230;2022-08-19T02:49:39;6.40;;;5.80;;
10987;SDS011;5547;42.672;23.230;2022-08-19T02:52:04;6.83;;;6.33;;
10987;SDS011;5547;42.672;23.230;2022-08-19T02:54:30;5.97;;;5.57;;
10987;SDS011;5547;42.672;23.230;2022-08-19T02:56:55;6.60;;;6.10;;
10987;SDS011;5547;42.672;23.230;2022-08-19T02:59:20;7.30;;;6.60;;
10987;SDS011;5547;42.672;23.230;2022-08-19T03:01:46;7.17;;;6.57;;
10987;SDS011;5547;42.672;23.230;2022-08-19T03:04:13;7.03;;;6.43;;
10987;SDS011;5547;42.672;23.230;2022-08-19T03:06:44;7.63;;;7.03;;
10987;SDS011;5547;42.672;23.230;2022-08-19T03:09:11;7.00;;;6.47;;
10987;SDS011;5547;42.672;23.230;2022-08-19T03:11:38;7.77;;;6.97;;
10987;SDS011;5547;42.672;23.230;2022-08-19T03:14:04;7.40;;;6.80;;
10987;SDS011;5547;42.672;23.230;2022-08-19T03:16:32;9.10;;;7.37;;
10987;SDS011;5547;42.672;23.230;2022-08-19T03:19:00;7.93;;;7.20;;
10987;SDS011;5547;42.672;23.230;2022-08-19T03:21:29;8.30;;;7.63;;
10987;SDS011;5547;42.672;23.230;2022-08-19T03:23:57;8.73;;;8.03;;
10987;SDS011;5547;42.672;23.230;2022-08-19T03:26:25;8.43;;;7.60;;
10987;SDS011;5547;42.672;23.230;2022-08-19T03:28:50;9.07;;;8.27;;
10987;SDS011;5547;42.672;23.230;2022-08-19T03:31:20;8.30;;;7.70;;
10987;SDS011;5547;42.672;23.230;2022-08-19T03:33:47;8.87;;;8.07;;
10987;SDS011;5547;42.672;23.230;2022-08-19T03:36:24;8.67;;;8.03;;
10987;SDS011;5547;42.672;23.230;2022-08-19T03:38:52;9.20;;;8.47;;
10987;SDS011;5547;42.672;23.230;2022-08-19T03:41:21;8.60;;;7.90;;
10987;SDS011;5547;42.672;23.230;2022-08-19T03:43:49;8.57;;;7.87;;
10987;SDS011;5547;42.672;23.230;2022-08-19T03:46:16;8.23;;;7.63;;
10987;SDS011;5547;42.672;23.230;2022-08-19T03:48:46;8.23;;;7.60;;
10987;SDS011;5547;42.672;23.230;2022-08-19T03:51:17;8.67;;;7.77;;
10987;SDS011;5547;42.672;23.230;2022-08-19T03:53:45;8.50;;;7.70;;
10987;SDS011;5547;42.672;23.230;2022-08-19T03:56:11;9.43;;;8.07;;
10987;SDS011;5547;42.672;23.230;2022-08-19T03:58:38;8.03;;;7.43;;
10987;SDS011;5547;42.672;23.230;2022-08-19T04:01:09;8.90;;;8.10;;
10987;SDS011;5547;42.672;23.230;2022-08-19T04:03:36;7.67;;;7.07;;
10987;SDS011;5547;42.672;23.230;2022-08-19T04:08:50;9.97;;;7.00;;
10987;SDS011;5547;42.672;23.230;2022-08-19T04:11:19;8.30;;;7.70;;
10987;SDS011;5547;42.672;23.230;2022-08-19T04:13:49;7.20;;;6.70;;
10987;SDS011;5547;42.672;23.230;2022-08-19T04:16:17;7.23;;;6.63;;
10987;SDS011;5547;42.672;23.230;2022-08-19T04:18:44;7.30;;;6.80;;
10987;SDS011;5547;42.672;23.230;2022-08-19T04:21:14;7.40;;;6.73;;
10987;SDS011;5547;42.672;23.230;2022-08-19T04:23:44;7.60;;;7.00;;
10987;SDS011;5547;42.672;23.230;2022-08-19T04:26:18;7.27;;;6.60;;
10987;SDS011;5547;42.672;23.230;2022-08-19T04:28:46;7.10;;;6.57;;
10987;SDS011;5547;42.672;23.230;2022-08-19T04:31:15;7.23;;;6.73;;
10987;SDS011;5547;42.672;23.230;2022-08-19T04:33:43;8.20;;;7.00;;
10987;SDS011;5547;42.672;23.230;2022-08-19T04:36:15;8.17;;;7.47;;
10987;SDS011;5547;42.672;23.230;2022-08-19T04:38:42;7.20;;;6.63;;
10987;SDS011;5547;42.672;23.230;2022-08-19T04:41:08;7.37;;;6.77;;
10987;SDS011;5547;42.672;23.230;2022-08-19T04:43:51;7.10;;;6.40;;
10987;SDS011;5547;42.672;23.230;2022-08-19T04:46:17;8.20;;;7.50;;
10987;SDS011;5547;42.672;23.230;2022-08-19T04:48:43;8.37;;;7.67;;
10987;SDS011;5547;42.672;23.230;2022-08-19T04:51:10;9.50;;;7.43;;
10987;SDS011;5547;42.672;23.230;2022-08-19T04:53:38;7.23;;;6.67;;
10987;SDS011;5547;42.672;23.230;2022-08-19T04:56:12;7.20;;;6.50;;
10987;SDS011;5547;42.672;23.230;2022-08-19T04:58:41;7.70;;;7.00;;
10987;SDS011;5547;42.672;23.230;2022-08-19T05:01:08;7.20;;;6.60;;
10987;SDS011;5547;42.672;23.230;2022-08-19T05:03:37;8.60;;;6.20;;
10987;SDS011;5547;42.672;23.230;2022-08-19T05:06:06;7.10;;;6.50;;
10987;SDS011;5547;42.672;23.230;2022-08-19T05:08:35;7.07;;;6.50;;
10987;SDS011;5547;42.672;23.230;2022-08-19T05:11:16;8.27;;;7.33;;
10987;SDS011;5547;42.672;23.230;2022-08-19T05:13:43;7.57;;;6.67;;
10987;SDS011;5547;42.672;23.230;2022-08-19T05:16:09;6.67;;;6.17;;
10987;SDS011;5547;42.672;23.230;2022-08-19T05:18:36;7.03;;;6.53;;
10987;SDS011;5547;42.672;23.230;2022-08-19T05:21:21;7.60;;;6.80;;
10987;SDS011;5547;42.672;23.230;2022-08-19T05:24:06;7.07;;;6.37;;
10987;SDS011;5547;42.672;23.230;2022-08-19T05:26:33;8.27;;;6.53;;
10987;SDS011;5547;42.672;23.230;2022-08-19T05:28:59;7.17;;;6.47;;
10987;SDS011;5547;42.672;23.230;2022-08-19T05:31:25;6.60;;;6.18;;
10987;SDS011;5547;42.672;23.230;2022-08-19T05:33:50;6.70;;;6.10;;
10987;SDS011;5547;42.672;23.230;2022-08-19T05:36:15;6.55;;;5.95;;
10987;SDS011;5547;42.672;23.230;2022-08-19T05:38:41;7.22;;;6.53;;
10987;SDS011;5547;42.672;23.230;2022-08-19T05:41:10;7.13;;;6.43;;
10987;SDS011;5547;42.672;23.230;2022-08-19T05:43:37;8.00;;;6.50;;
10987;SDS011;5547;42.672;23.230;2022-08-19T05:46:03;7.75;;;6.97;;
10987;SDS011;5547;42.672;23.230;2022-08-19T05:48:31;7.35;;;6.65;;
10987;SDS011;5547;42.672;23.230;2022-08-19T05:51:09;7.93;;;6.70;;
10987;SDS011;5547;42.672;23.230;2022-08-19T05:53:34;6.55;;;5.75;;
10987;SDS011;5547;42.672;23.230;2022-08-19T05:56:09;9.80;;;6.47;;
10987;SDS011;5547;42.672;23.230;2022-08-19T05:58:36;8.93;;;7.15;;
10987;SDS011;5547;42.672;23.230;2022-08-19T06:01:03;8.73;;;7.10;;
10987;SDS011;5547;42.672;23.230;2022-08-19T06:03:34;9.18;;;6.75;;
10987;SDS011;5547;42.672;23.230;2022-08-19T06:06:02;7.00;;;6.47;;
10987;SDS011;5547;42.672;23.230;2022-08-19T06:08:29;7.97;;;7.15;;
10987;SDS011;5547;42.672;23.230;2022-08-19T06:10:54;8.63;;;7.55;;
10987;SDS011;5547;42.672;23.230;2022-08-19T06:13:20;11.50;;;7.10;;
10987;SDS011;5547;42.672;23.230;2022-08-19T06:15:48;10.10;;;7.30;;
10987;SDS011;5547;42.672;23.230;2022-08-19T06:18:14;8.82;;;7.45;;
10987;SDS011;5547;42.672;23.230;2022-08-19T06:20:40;11.77;;;8.25;;
10987;SDS011;5547;42.672;23.230;2022-08-19T06:23:06;9.80;;;8.52;;
10987;SDS011;5547;42.672;23.230;2022-08-19T06:25:33;12.90;;;8.90;;
10987;SDS011;5547;42.672;23.230;2022-08-19T06:27:59;10.60;;;8.75;;
10987;SDS011;5547;42.672;23.230;2022-08-19T06:30:25;13.35;;;8.00;;
10987;SDS011;5547;42.672;23.230;2022-08-19T06:32:50;13.18;;;9.20;;
10987;SDS011;5547;42.672;23.230;2022-08-19T06:35:16;10.65;;;8.77;;
10987;SDS011;5547;42.672;23.230;2022-08-19T06:37:41;12.30;;;8.70;;
10987;SDS011;5547;42.672;23.230;2022-08-19T06:40:07;14.48;;;8.18;;
10987;SDS011;5547;42.672;23.230;2022-08-19T06:42:36;15.30;;;8.80;;
10987;SDS011;5547;42.672;23.230;2022-08-19T06:45:03;12.40;;;8.63;;
10987;SDS011;5547;42.672;23.230;2022-08-19T06:47:30;13.80;;;8.52;;
10987;SDS011;5547;42.672;23.230;2022-08-19T06:49:57;9.48;;;8.25;;
10987;SDS011;5547;42.672;23.230;2022-08-19T06:52:28;15.20;;;9.20;;
10987;SDS011;5547;42.672;23.230;2022-08-19T06:54:58;9.15;;;8.32;;
10987;SDS011;5547;42.672;23.230;2022-08-19T06:57:24;11.75;;;9.60;;
10987;SDS011;5547;42.672;23.230;2022-08-19T06:59:50;12.52;;;9.32;;
10987;SDS011;5547;42.672;23.230;2022-08-19T07:02:16;14.82;;;9.93;;
10987;SDS011;5547;42.672;23.230;2022-08-19T07:04:41;14.63;;;8.82;;
10987;SDS011;5547;42.672;23.230;2022-08-19T07:07:08;10.02;;;9.05;;
10987;SDS011;5547;42.672;23.230;2022-08-19T07:09:37;13.65;;;8.98;;
10987;SDS011;5547;42.672;23.230;2022-08-19T07:12:05;10.38;;;8.77;;
10987;SDS011;5547;42.672;23.230;2022-08-19T07:14:32;18.33;;;9.85;;
10987;SDS011;5547;42.672;23.230;2022-08-19T07:17:03;12.93;;;9.23;;
10987;SDS011;5547;42.672;23.230;2022-08-19T07:19:32;10.13;;;9.02;;
10987;SDS011;5547;42.672;23.230;2022-08-19T07:21:58;10.85;;;9.75;;
10987;SDS011;5547;42.672;23.230;2022-08-19T07:24:27;11.55;;;9.30;;
10987;SDS011;5547;42.672;23.230;2022-08-19T07:26:54;11.73;;;9.68;;
10987;SDS011;5547;42.672;23.230;2022-08-19T07:29:28;14.55;;;9.73;;
10987;SDS011;5547;42.672;23.230;2022-08-19T07:31:55;13.82;;;9.30;;
10987;SDS011;5547;42.672;23.230;2022-08-19T07:34:23;17.52;;;10.48;;
10987;SDS011;5547;42.672;23.230;2022-08-19T07:36:50;13.57;;;9.90;;
10987;SDS011;5547;42.672;23.230;2022-08-19T07:39:18;14.57;;;10.70;;
10987;SDS011;5547;42.672;23.230;2022-08-19T07:41:45;12.55;;;9.90;;
10987;SDS011;5547;42.672;23.230;2022-08-19T07:44:12;10.93;;;9.82;;
10987;SDS011;5547;42.672;23.230;2022-08-19T07:46:39;12.32;;;10.27;;
10987;SDS011;5547;42.672;23.230;2022-08-19T07:49:07;12.60;;;10.60;;
10987;SDS011;5547;42.672;23.230;2022-08-19T07:51:33;14.45;;;9.63;;
10987;SDS011;5547;42.672;23.230;2022-08-19T07:53:59;10.88;;;9.57;;
10987;SDS011;5547;42.672;23.230;2022-08-19T07:56:25;11.00;;;9.68;;
10987;SDS011;5547;42.672;23.230;2022-08-19T07:58:51;10.77;;;9.23;;
10987;SDS011;5547;42.672;23.230;2022-08-19T08:01:22;11.73;;;9.50;;
10987;SDS011;5547;42.672;23.230;2022-08-19T08:03:50;12.02;;;8.82;;
10987;SDS011;5547;42.672;23.230;2022-08-19T08:06:36;13.00;;;8.77;;
10987;SDS011;5547;42.672;23.230;2022-08-19T08:09:23;23.38;;;16.13;;
10987;SDS011;5547;42.672;23.230;2022-08-19T08:14:22;9.18;;;8.23;;
10987;SDS011;5547;42.672;23.230;2022-08-19T08:16:49;8.82;;;7.85;;
10987;SDS011;5547;42.672;23.230;2022-08-19T08:19:16;25.23;;;22.48;;
10987;SDS011;5547;42.672;23.230;2022-08-19T08:21:44;9.25;;;7.53;;
10987;SDS011;5547;42.672;23.230;2022-08-19T08:24:09;7.70;;;6.95;;
10987;SDS011;5547;42.672;23.230;2022-08-19T08:26:37;7.70;;;6.93;;
10987;SDS011;5547;42.672;23.230;2022-08-19T08:29:03;10.02;;;7.53;;
10987;SDS011;5547;42.672;23.230;2022-08-19T08:31:28;7.28;;;6.50;;
10987;SDS011;5547;42.672;23.230;2022-08-19T08:33:54;11.50;;;6.43;;
10987;SDS011;5547;42.672;23.230;2022-08-19T08:36:19;11.73;;;6.70;;
10987;SDS011;5547;42.672;23.230;2022-08-19T08:38:45;8.27;;;6.82;;
10987;SDS011;5547;42.672;23.230;2022-08-19T08:44:06;7.82;;;6.50;;
10987;SDS011;5547;42.672;23.230;2022-08-19T08:46:41;10.13;;;5.88;;
10987;SDS011;5547;42.672;23.230;2022-08-19T08:49:20;5.15;;;4.35;;
10987;SDS011;5547;42.672;23.230;2022-08-19T08:52:09;7.43;;;5.15;;
10987;SDS011;5547;42.672;23.230;2022-08-19T08:54:45;5.53;;;5.03;;
10987;SDS011;5547;42.672;23.230;2022-08-19T08:57:14;5.18;;;4.68;;
10987;SDS011;5547;42.672;23.230;2022-08-19T09:00:03;9.65;;;5.30;;
10987;SDS011;5547;42.672;23.230;2022-08-19T09:02:32;5.93;;;5.45;;
10987;SDS011;5547;42.672;23.230;2022-08-19T09:04:58;5.13;;;4.72;;
10987;SDS011;5547;42.672;23.230;2022-08-19T09:16:10;4.95;;;4.55;;
10987;SDS011;5547;42.672;23.230;2022-08-19T09:18:40;4.65;;;4.20;;
10987;SDS011;5547;42.672;23.230;2022-08-19T09:21:07;4.10;;;3.70;;
10987;SDS011;5547;42.672;23.230;2022-08-19T09:23:34;4.45;;;3.85;;
10987;SDS011;5547;42.672;23.230;2022-08-19T09:26:00;4.65;;;3.88;;
10987;SDS011;5547;42.672;23.230;2022-08-19T09:28:26;4.03;;;3.72;;
10987;SDS011;5547;42.672;23.230;2022-08-19T09:30:52;4.25;;;3.80;;
10987;SDS011;5547;42.672;23.230;2022-08-19T09:33:18;6.95;;;4.38;;
10987;SDS011;5547;42.672;23.230;2022-08-19T09:35:44;4.60;;;4.10;;
10987;SDS011;5547;42.672;23.230;2022-08-19T09:38:09;5.20;;;4.80;;
10987;SDS011;5547;42.672;23.230;2022-08-19T09:40:35;4.55;;;4.15;;
10987;SDS011;5547;42.672;23.230;2022-08-19T09:43:01;4.05;;;3.75;;
10987;SDS011;5547;42.672;23.230;2022-08-19T09:45:27;4.45;;;4.05;;
10987;SDS011;5547;42.672;23.230;2022-08-19T09:47:53;5.68;;;4.25;;
10987;SDS011;5547;42.672;23.230;2022-08-19T09:50:19;4.40;;;3.90;;
10987;SDS011;5547;42.672;23.230;2022-08-19T09:52:45;5.10;;;4.60;;
10987;SDS011;5547;42.672;23.230;2022-08-19T09:55:11;8.65;;;4.57;;
10987;SDS011;5547;42.672;23.230;2022-08-19T09:57:37;4.57;;;4.18;;
10987;SDS011;5547;42.672;23.230;2022-08-19T10:00:04;5.00;;;4.50;;
10987;SDS011;5547;42.672;23.230;2022-08-19T10:02:32;6.13;;;4.43;;
10987;SDS011;5547;42.672;23.230;2022-08-19T10:04:57;5.13;;;3.65;;
10987;SDS011;5547;42.672;23.230;2022-08-19T10:07:41;4.70;;;3.80;;
10987;SDS011;5547;42.672;23.230;2022-08-19T10:10:07;4.03;;;3.70;;
10987;SDS011;5547;42.672;23.230;2022-08-19T10:12:34;6.60;;;3.75;;
10987;SDS011;5547;42.672;23.230;2022-08-19T10:15:01;27.30;;;24.85;;
10987;SDS011;5547;42.672;23.230;2022-08-19T10:17:27;11.20;;;10.18;;
10987;SDS011;5547;42.672;23.230;2022-08-19T10:19:53;4.85;;;4.10;;
10987;SDS011;5547;42.672;23.230;2022-08-19T10:22:19;4.15;;;3.58;;
10987;SDS011;5547;42.672;23.230;2022-08-19T10:24:47;5.20;;;3.97;;
10987;SDS011;5547;42.672;23.230;2022-08-19T10:27:12;4.80;;;4.25;;
10987;SDS011;5547;42.672;23.230;2022-08-19T10:29:39;5.47;;;4.25;;
10987;SDS011;5547;42.672;23.230;2022-08-19T10:32:06;4.63;;;4.32;;
10987;SDS011;5547;42.672;23.230;2022-08-19T10:34:33;4.95;;;4.53;;
10987;SDS011;5547;42.672;23.230;2022-08-19T10:37:00;5.55;;;4.53;;
10987;SDS011;5547;42.672;23.230;2022-08-19T10:39:26;8.05;;;4.40;;
10987;SDS011;5547;42.672;23.230;2022-08-19T10:41:54;5.05;;;4.57;;
10987;SDS011;5547;42.672;23.230;2022-08-19T10:44:21;5.20;;;4.50;;
10987;SDS011;5547;42.672;23.230;2022-08-19T10:46:48;5.57;;;4.63;;
10987;SDS011;5547;42.672;23.230;2022-08-19T10:49:13;5.05;;;4.53;;
10987;SDS011;5547;42.672;23.230;2022-08-19T10:51:39;5.13;;;4.53;;
10987;SDS011;5547;42.672;23.230;2022-08-19T10:54:23;5.05;;;4.45;;
10987;SDS011;5547;42.672;23.230;2022-08-19T10:57:09;5.68;;;4.28;;
10987;SDS011;5547;42.672;23.230;2022-08-19T10:59:35;4.95;;;4.55;;
10987;SDS011;5547;42.672;23.230;2022-08-19T11:02:01;8.02;;;4.60;;
10987;SDS011;5547;42.672;23.230;2022-08-19T11:04:28;5.15;;;4.65;;
10987;SDS011;5547;42.672;23.230;2022-08-19T11:06:54;5.10;;;4.70;;
10987;SDS011;5547;42.672;23.230;2022-08-19T11:09:21;5.20;;;4.75;;
10987;SDS011;5547;42.672;23.230;2022-08-19T11:11:52;6.07;;;5.05;;
10987;SDS011;5547;42.672;23.230;2022-08-19T11:14:18;5.10;;;4.63;;
10987;SDS011;5547;42.672;23.230;2022-08-19T11:16:45;5.32;;;4.82;;
10987;SDS011;5547;42.672;23.230;2022-08-19T11:19:11;5.00;;;4.63;;
10987;SDS011;5547;42.672;23.230;2022-08-19T11:21:38;5.05;;;4.65;;
10987;SDS011;5547;42.672;23.230;2022-08-19T11:24:09;5.30;;;4.75;;
10987;SDS011;5547;42.672;23.230;2022-08-19T11:26:36;5.57;;;5.07;;
10987;SDS011;5547;42.672;23.230;2022-08-19T11:29:03;5.10;;;4.70;;
10987;SDS011;5547;42.672;23.230;2022-08-19T11:31:32;5.32;;;4.93;;
10987;SDS011;5547;42.672;23.230;2022-08-19T11:34:00;5.43;;;4.65;;
10987;SDS011;5547;42.672;23.230;2022-08-19T11:36:28;5.30;;;4.80;;
10987;SDS011;5547;42.672;23.230;2022-08-19T11:38:54;5.57;;;5.15;;
10987;SDS011;5547;42.672;23.230;2022-08-19T11:41:20;6.43;;;4.82;;
10987;SDS011;5547;42.672;23.230;2022-08-19T11:43:48;5.68;;;5.00;;
10987;SDS011;5547;42.672;23.230;2022-08-19T11:46:16;5.43;;;4.90;;
10987;SDS011;5547;42.672;23.230;2022-08-19T11:48:42;6.57;;;5.00;;
10987;SDS011;5547;42.672;23.230;2022-08-19T11:51:13;15.05;;;4.85;;
10987;SDS011;5547;42.672;23.230;2022-08-19T11:53:40;6.75;;;5.18;;
10987;SDS011;5547;42.672;23.230;2022-08-19T11:56:07;5.38;;;4.88;;
10987;SDS011;5547;42.672;23.230;2022-08-19T11:58:33;5.20;;;4.70;;
10987;SDS011;5547;42.672;23.230;2022-08-19T12:00:59;4.90;;;4.60;;
10987;SDS011;5547;42.672;23.230;2022-08-19T12:03:25;6.38;;;4.40;;
10987;SDS011;5547;42.672;23.230;2022-08-19T12:05:51;5.22;;;4.80;;
10987;SDS011;5547;42.672;23.230;2022-08-19T12:08:17;5.35;;;4.85;;
10987;SDS011;5547;42.672;23.230;2022-08-19T12:10:43;5.43;;;4.93;;
10987;SDS011;5547;42.672;23.230;2022-08-19T12:13:10;5.82;;;5.30;;
10987;SDS011;5547;42.672;23.230;2022-08-19T12:15:39;5.40;;;4.85;;
10987;SDS011;5547;42.672;23.230;2022-08-19T12:18:06;4.93;;;4.53;;
10987;SDS011;5547;42.672;23.230;2022-08-19T12:20:34;7.65;;;4.93;;
10987;SDS011;5547;42.672;23.230;2022-08-19T12:23:01;6.15;;;5.50;;
10987;SDS011;5547;42.672;23.230;2022-08-19T12:25:26;6.05;;;5.05;;
10987;SDS011;5547;42.672;23.230;2022-08-19T12:27:52;5.68;;;5.18;;
10987;SDS011;5547;42.672;23.230;2022-08-19T12:30:17;7.35;;;5.10;;
10987;SDS011;5547;42.672;23.230;2022-08-19T12:32:43;5.72;;;4.78;;
10987;SDS011;5547;42.672;23.230;2022-08-19T12:35:08;6.15;;;5.18;;
10987;SDS011;5547;42.672;23.230;2022-08-19T12:37:36;5.75;;;4.70;;
10987;SDS011;5547;42.672;23.230;2022-08-19T12:40:02;5.47;;;4.97;;
10987;SDS011;5547;42.672;23.230;2022-08-19T12:42:28;6.22;;;4.63;;
10987;SDS011;5547;42.672;23.230;2022-08-19T12:44:55;6.55;;;5.15;;
10987;SDS011;5547;42.672;23.230;2022-08-19T12:47:21;5.18;;;4.70;;
10987;SDS011;5547;42.672;23.230;2022-08-19T12:49:46;5.68;;;4.97;;
10987;SDS011;5547;42.672;23.230;2022-08-19T12:52:12;5.75;;;4.53;;
10987;SDS011;5547;42.672;23.230;2022-08-19T12:54:41;5.32;;;4.60;;
10987;SDS011;5547;42.672;23.230;2022-08-19T12:57:08;5.32;;;4.55;;
10987;SDS011;5547;42.672;23.230;2022-08-19T12:59:35;5.30;;;4.88;;
10987;SDS011;5547;42.672;23.230;2022-08-19T13:02:02;4.85;;;4.45;;
10987;SDS011;5547;42.672;23.230;2022-08-19T13:04:30;5.40;;;4.90;;
10987;SDS011;5547;42.672;23.230;2022-08-19T13:06:55;4.80;;;4.40;;
10987;SDS011;5547;42.672;23.230;2022-08-19T13:09:21;7.55;;;5.75;;
10987;SDS011;5547;42.672;23.230;2022-08-19T13:11:46;5.32;;;4.60;;
10987;SDS011;5547;42.672;23.230;2022-08-19T13:14:12;7.93;;;4.85;;
10987;SDS011;5547;42.672;23.230;2022-08-19T13:16:38;6.22;;;4.88;;
10987;SDS011;5547;42.672;23.230;2022-08-19T13:19:03;8.20;;;4.40;;
10987;SDS011;5547;42.672;23.230;2022-08-19T13:21:30;5.28;;;4.80;;
10987;SDS011;5547;42.672;23.230;2022-08-19T13:23:56;5.57;;;4.18;;
10987;SDS011;5547;42.672;23.230;2022-08-19T13:26:21;5.22;;;4.38;;
10987;SDS011;5547;42.672;23.230;2022-08-19T13:28:47;4.93;;;4.40;;
10987;SDS011;5547;42.672;23.230;2022-08-19T13:31:32;7.35;;;4.32;;
10987;SDS011;5547;42.672;23.230;2022-08-19T13:34:19;5.22;;;4.40;;
10987;SDS011;5547;42.672;23.230;2022-08-19T13:36:51;5.07;;;4.32;;
10987;SDS011;5547;42.672;23.230;2022-08-19T13:39:17;5.43;;;4.88;;
10987;SDS011;5547;42.672;23.230;2022-08-19T13:41:45;4.75;;;4.20;;
10987;SDS011;5547;42.672;23.230;2022-08-19T13:44:13;5.30;;;4.68;;
10987;SDS011;5547;42.672;23.230;2022-08-19T13:46:43;5.30;;;4.80;;
10987;SDS011;5547;42.672;23.230;2022-08-19T13:49:10;4.85;;;4.45;;
10987;SDS011;5547;42.672;23.230;2022-08-19T13:51:37;7.10;;;4.43;;
10987;SDS011;5547;42.672;23.230;2022-08-19T13:54:04;5.72;;;4.43;;
10987;SDS011;5547;42.672;23.230;2022-08-19T13:56:30;5.25;;;4.40;;
10987;SDS011;5547;42.672;23.230;2022-08-19T13:58:55;4.82;;;4.43;;
10987;SDS011;5547;42.672;23.230;2022-08-19T14:01:22;5.45;;;4.95;;
10987;SDS011;5547;42.672;23.230;2022-08-19T14:03:48;5.63;;;4.88;;
10987;SDS011;5547;42.672;23.230;2022-08-19T14:06:14;8.05;;;4.53;;
10987;SDS011;5547;42.672;23.230;2022-08-19T14:08:39;4.78;;;4.40;;
10987;SDS011;5547;42.672;23.230;2022-08-19T14:11:06;5.07;;;4.63;;
10987;SDS011;5547;42.672;23.230;2022-08-19T14:13:32;5.05;;;4.50;;
10987;SDS011;5547;42.672;23.230;2022-08-19T14:15:58;5.63;;;4.68;;
10987;SDS011;5547;42.672;23.230;2022-08-19T14:18:24;6.30;;;4.85;;
10987;SDS011;5547;42.672;23.230;2022-08-19T14:20:50;8.80;;;4.90;;
10987;SDS011;5547;42.672;23.230;2022-08-19T14:23:16;5.25;;;4.75;;
10987;SDS011;5547;42.672;23.230;2022-08-19T14:25:42;6.43;;;4.78;;
10987;SDS011;5547;42.672;23.230;2022-08-19T14:28:09;5.20;;;4.70;;
10987;SDS011;5547;42.672;23.230;2022-08-19T14:30:35;6.00;;;5.40;;
10987;SDS011;5547;42.672;23.230;2022-08-19T14:33:03;6.38;;;5.22;;
10987;SDS011;5547;42.672;23.230;2022-08-19T14:35:31;6.47;;;4.93;;
10987;SDS011;5547;42.672;23.230;2022-08-19T14:38:04;7.18;;;5.03;;
10987;SDS011;5547;42.672;23.230;2022-08-19T14:40:31;5.40;;;4.90;;
10987;SDS011;5547;42.672;23.230;2022-08-19T14:42:59;6.90;;;5.25;;
10987;SDS011;5547;42.672;23.230;2022-08-19T14:45:29;5.68;;;5.10;;
10987;SDS011;5547;42.672;23.230;2022-08-19T14:47:57;5.38;;;4.57;;
10987;SDS011;5547;42.672;23.230;2022-08-19T14:50:25;6.15;;;5.03;;
10987;SDS011;5547;42.672;23.230;2022-08-19T14:53:03;5.22;;;4.75;;
10987;SDS011;5547;42.672;23.230;2022-08-19T14:55:31;5.90;;;5.50;;
10987;SDS011;5547;42.672;23.230;2022-08-19T14:57:57;6.43;;;5.07;;
10987;SDS011;5547;42.672;23.230;2022-08-19T15:00:24;5.93;;;5.32;;
10987;SDS011;5547;42.672;23.230;2022-08-19T15:02:50;7.10;;;4.95;;
10987;SDS011;5547;42.672;23.230;2022-08-19T15:05:18;5.70;;;5.20;;
10987;SDS011;5547;42.672;23.230;2022-08-19T15:07:44;5.50;;;5.00;;